createdAt,value
2018-09-29T00:01:23.366Z,102113.26
2018-09-29T00:03:50.671Z,102123.01
2018-09-29T00:06:17.952Z,102125.70
2018-09-29T00:08:45.189Z,102127.72
2018-09-29T00:11:12.479Z,102129.97
2018-09-29T00:13:39.773Z,102127.44
2018-09-29T00:16:07.331Z,102130.50
2018-09-29T00:18:34.607Z,102136.92
2018-09-29T00:21:01.980Z,102137.20
2018-09-29T00:23:29.243Z,102143.27
2018-09-29T00:25:56.519Z,102136.16
2018-09-29T00:28:23.792Z,102141.25
2018-09-29T00:30:51.071Z,102135.58
2018-09-29T00:33:18.306Z,102128.33
2018-09-29T00:35:45.631Z,102125.48
2018-09-29T00:38:12.901Z,102130.06
2018-09-29T00:40:40.227Z,102129.83
2018-09-29T00:43:07.523Z,102130.39
2018-09-29T00:45:34.771Z,102124.77
2018-09-29T00:48:02.141Z,102121.06
2018-09-29T00:50:29.372Z,102123.94
2018-09-29T00:52:56.753Z,102127.25
2018-09-29T00:55:24.057Z,102131.30
2018-09-29T00:57:51.417Z,102127.09
2018-09-29T01:00:18.660Z,102129.28
2018-09-29T01:02:45.923Z,102131.15
2018-09-29T01:05:13.228Z,102129.41
2018-09-29T01:07:40.494Z,102130.33
2018-09-29T01:10:07.796Z,102134.77
2018-09-29T01:12:35.050Z,102127.50
2018-09-29T01:15:02.370Z,102128.12
2018-09-29T01:17:29.644Z,102125.87
2018-09-29T01:19:56.922Z,102119.62
2018-09-29T01:22:24.190Z,102130.39
2018-09-29T01:24:51.492Z,102127.91
2018-09-29T01:27:18.741Z,102117.03
2018-09-29T01:29:46.029Z,102118.44
2018-09-29T01:32:13.287Z,102125.59
2018-09-29T01:34:40.562Z,102123.05
2018-09-29T01:37:07.818Z,102130.50
2018-09-29T01:39:35.121Z,102130.86
2018-09-29T01:42:02.433Z,102135.58
2018-09-29T01:44:29.661Z,102137.02
2018-09-29T01:46:56.975Z,102135.09
2018-09-29T01:49:24.237Z,102127.36
2018-09-29T01:51:51.559Z,102125.45
2018-09-29T01:54:18.995Z,102116.65
2018-09-29T01:56:46.347Z,102122.94
2018-09-29T01:59:13.617Z,102126.05
2018-09-29T02:01:40.933Z,102123.20
2018-09-29T02:04:08.163Z,102126.95
2018-09-29T02:06:35.453Z,102124.61
2018-09-29T02:09:03.259Z,102127.08
2018-09-29T02:11:30.567Z,102128.27
2018-09-29T02:13:58.479Z,102135.83
2018-09-29T02:16:25.923Z,102139.35
2018-09-29T02:18:53.208Z,102140.48
2018-09-29T02:21:20.511Z,102138.66
2018-09-29T02:23:47.785Z,102129.70
2018-09-29T02:26:15.105Z,102125.20
2018-09-29T02:28:42.312Z,102122.88
2018-09-29T02:31:09.589Z,102127.00
2018-09-29T02:33:36.875Z,102134.63
2018-09-29T02:36:04.227Z,102134.33
2018-09-29T02:38:31.575Z,102142.13
2018-09-29T02:40:58.848Z,102137.43
2018-09-29T02:43:26.136Z,102136.90
2018-09-29T02:45:53.412Z,102127.27
2018-09-29T02:48:20.699Z,102127.23
2018-09-29T02:50:48.206Z,102128.78
2018-09-29T02:53:15.498Z,102128.94
2018-09-29T02:55:42.816Z,102126.00
2018-09-29T02:58:10.094Z,102133.09
2018-09-29T03:00:37.348Z,102135.32
2018-09-29T03:03:04.627Z,102127.67
2018-09-29T03:05:31.872Z,102135.32
2018-09-29T03:07:59.140Z,102130.59
2018-09-29T03:10:26.384Z,102136.47
2018-09-29T03:15:27.611Z,102140.56
2018-09-29T03:17:54.967Z,102137.34
2018-09-29T03:20:22.249Z,102136.89
2018-09-29T03:22:49.519Z,102133.83
2018-09-29T03:25:16.761Z,102138.79
2018-09-29T03:27:44.053Z,102138.86
2018-09-29T03:30:11.385Z,102135.29
2018-09-29T03:32:38.608Z,102139.50
2018-09-29T03:35:05.909Z,102136.25
2018-09-29T03:37:33.197Z,102135.88
2018-09-29T03:40:00.537Z,102143.94
2018-09-29T03:42:27.797Z,102151.52
2018-09-29T03:44:55.148Z,102147.95
2018-09-29T03:47:22.472Z,102146.66
2018-09-29T03:49:49.773Z,102145.88
2018-09-29T03:52:17.076Z,102142.41
2018-09-29T03:54:44.366Z,102147.66
2018-09-29T03:57:11.642Z,102146.81
2018-09-29T03:59:38.909Z,102151.75
2018-09-29T04:02:06.160Z,102149.51
2018-09-29T04:04:33.451Z,102155.16
2018-09-29T04:07:00.730Z,102157.80
2018-09-29T04:09:28.039Z,102157.61
2018-09-29T04:11:55.332Z,102155.84
2018-09-29T04:14:22.638Z,102159.84
2018-09-29T04:16:49.931Z,102169.11
2018-09-29T04:19:17.270Z,102172.20
2018-09-29T04:21:46.722Z,102164.66
2018-09-29T04:24:14.568Z,102167.85
2018-09-29T04:26:41.919Z,102167.34
2018-09-29T04:29:09.184Z,102169.59
2018-09-29T04:31:36.468Z,102169.09
2018-09-29T04:34:03.808Z,102169.06
2018-09-29T04:36:31.076Z,102173.52
2018-09-29T04:38:58.373Z,102172.70
2018-09-29T04:41:25.592Z,102176.25
2018-09-29T04:43:52.894Z,102177.23
2018-09-29T04:46:20.177Z,102175.45
2018-09-29T04:48:47.752Z,102179.80
2018-09-29T04:51:15.023Z,102184.31
2018-09-29T04:53:42.614Z,102176.11
2018-09-29T04:56:10.532Z,102187.02
2018-09-29T04:58:37.782Z,102190.83
2018-09-29T05:01:05.095Z,102178.55
2018-09-29T05:03:32.363Z,102188.34
2018-09-29T05:05:59.738Z,102185.62
2018-09-29T05:08:27.132Z,102183.91
2018-09-29T05:10:54.373Z,102187.06
2018-09-29T05:13:21.771Z,102186.14
2018-09-29T05:15:58.427Z,102186.16
2018-09-29T05:18:25.868Z,102195.82
2018-09-29T05:20:53.327Z,102197.58
2018-09-29T05:23:21.311Z,102196.73
2018-09-29T05:25:48.931Z,102203.75
2018-09-29T05:28:16.196Z,102199.87
2018-09-29T05:30:44.501Z,102200.35
2018-09-29T05:33:11.705Z,102198.40
2018-09-29T05:35:38.981Z,102194.02
2018-09-29T05:38:06.465Z,102201.04
2018-09-29T05:40:33.716Z,102201.42
2018-09-29T05:43:01.178Z,102207.69
2018-09-29T05:45:28.594Z,102212.55
2018-09-29T05:47:56.008Z,102212.53
2018-09-29T05:50:23.246Z,102203.58
2018-09-29T05:52:50.589Z,102205.78
2018-09-29T05:55:18.177Z,102208.89
2018-09-29T05:57:45.547Z,102221.59
2018-09-29T06:00:13.030Z,102219.02
2018-09-29T06:02:40.252Z,102217.14
2018-09-29T06:05:07.583Z,102219.27
2018-09-29T06:07:35.192Z,102215.73
2018-09-29T06:10:02.641Z,102218.27
2018-09-29T06:12:30.117Z,102217.80
2018-09-29T06:14:57.396Z,102217.70
2018-09-29T06:17:24.663Z,102213.31
2018-09-29T06:19:52.243Z,102207.08
2018-09-29T06:22:19.530Z,102206.44
2018-09-29T06:24:47.559Z,102204.66
2018-09-29T06:27:14.863Z,102202.97
2018-09-29T06:29:42.107Z,102207.15
2018-09-29T06:32:09.403Z,102212.49
2018-09-29T06:34:36.748Z,102211.27
2018-09-29T06:37:04.070Z,102206.66
2018-09-29T06:39:31.444Z,102208.27
2018-09-29T06:41:58.906Z,102216.66
2018-09-29T06:44:26.162Z,102215.60
2018-09-29T06:46:53.442Z,102214.57
2018-09-29T06:49:20.839Z,102217.55
2018-09-29T06:51:48.114Z,102216.52
2018-09-29T06:54:15.455Z,102212.80
2018-09-29T06:56:43.022Z,102219.30
2018-09-29T06:59:10.794Z,102214.73
2018-09-29T07:01:38.102Z,102218.41
2018-09-29T07:04:05.449Z,102227.13
2018-09-29T07:06:32.899Z,102219.67
2018-09-29T07:09:00.181Z,102220.10
2018-09-29T07:11:27.462Z,102224.15
2018-09-29T07:13:54.848Z,102221.51
2018-09-29T07:16:22.174Z,102225.44
2018-09-29T07:18:49.499Z,102225.19
2018-09-29T07:21:16.893Z,102219.78
2018-09-29T07:23:44.193Z,102215.12
2018-09-29T07:26:11.496Z,102220.85
2018-09-29T07:28:38.747Z,102212.38
2018-09-29T07:31:06.558Z,102211.56
2018-09-29T07:33:33.806Z,102218.64
2018-09-29T07:36:01.863Z,102221.12
2018-09-29T07:38:29.117Z,102224.98
2018-09-29T07:40:56.547Z,102220.31
2018-09-29T07:43:23.961Z,102223.33
2018-09-29T07:45:55.206Z,102219.86
2018-09-29T07:48:22.485Z,102211.62
2018-09-29T07:50:49.811Z,102217.63
2018-09-29T07:53:17.220Z,102217.95
2018-09-29T07:55:44.615Z,102220.48
2018-09-29T07:58:11.907Z,102221.33
2018-09-29T08:00:39.442Z,102215.59
2018-09-29T08:03:06.872Z,102218.07
2018-09-29T08:05:34.324Z,102208.93
2018-09-29T08:08:01.699Z,102207.88
2018-09-29T08:10:28.987Z,102212.74
2018-09-29T08:12:56.327Z,102214.05
2018-09-29T08:15:23.619Z,102219.61
2018-09-29T08:17:50.955Z,102216.52
2018-09-29T08:20:18.223Z,102216.37
2018-09-29T08:22:45.599Z,102223.71
2018-09-29T08:25:12.922Z,102223.34
2018-09-29T08:27:40.356Z,102209.44
2018-09-29T08:30:07.659Z,102216.41
2018-09-29T08:32:35.060Z,102231.54
2018-09-29T08:35:02.456Z,102219.44
2018-09-29T08:37:29.743Z,102217.06
2018-09-29T08:39:57.054Z,102216.55
2018-09-29T08:42:24.422Z,102213.73
2018-09-29T08:44:51.710Z,102213.72
2018-09-29T08:47:19.042Z,102209.59
2018-09-29T08:49:47.034Z,102216.55
2018-09-29T08:52:14.495Z,102224.25
2018-09-29T08:54:41.947Z,102210.33
2018-09-29T08:57:09.322Z,102201.02
2018-09-29T08:59:36.603Z,102207.78
2018-09-29T09:02:03.947Z,102206.98
2018-09-29T09:04:31.217Z,102209.05
2018-09-29T09:06:58.670Z,102207.58
2018-09-29T09:09:26.004Z,102204.93
2018-09-29T09:11:53.621Z,102203.66
2018-09-29T09:14:20.920Z,102206.63
2018-09-29T09:16:48.423Z,102211.32
2018-09-29T09:19:15.774Z,102213.14
2018-09-29T09:21:43.413Z,102207.89
2018-09-29T09:24:10.690Z,102210.72
2018-09-29T09:26:38.080Z,102210.15
2018-09-29T09:29:05.420Z,102209.91
2018-09-29T09:31:32.681Z,102208.48
2018-09-29T09:34:00.038Z,102203.95
2018-09-29T09:36:27.409Z,102203.98
2018-09-29T09:38:54.735Z,102204.81
2018-09-29T09:41:22.037Z,102202.83
2018-09-29T09:43:49.300Z,102203.05
2018-09-29T09:46:16.711Z,102195.88
2018-09-29T09:48:44.014Z,102194.55
2018-09-29T09:51:11.521Z,102194.64
2018-09-29T09:53:39.333Z,102199.21
2018-09-29T09:56:07.262Z,102200.24
2018-09-29T09:58:35.263Z,102197.30
2018-09-29T10:01:08.230Z,102191.99
2018-09-29T10:03:35.543Z,102195.48
2018-09-29T10:06:02.817Z,102191.28
2018-09-29T10:08:30.242Z,102188.92
2018-09-29T10:10:57.526Z,102182.09
2018-09-29T10:13:24.959Z,102182.56
2018-09-29T10:15:52.382Z,102180.67
2018-09-29T10:18:19.968Z,102173.49
2018-09-29T10:20:47.944Z,102178.78
2018-09-29T10:23:15.582Z,102166.09
2018-09-29T10:25:43.769Z,102166.13
2018-09-29T10:28:11.188Z,102171.70
2018-09-29T10:30:39.058Z,102156.23
2018-09-29T10:33:06.764Z,102152.68
2018-09-29T10:35:34.026Z,102160.42
2018-09-29T10:38:02.069Z,102156.48
2018-09-29T10:40:29.359Z,102152.03
2018-09-29T10:42:57.442Z,102147.66
2018-09-29T10:45:25.426Z,102131.63
2018-09-29T10:47:52.894Z,102137.39
2018-09-29T10:50:20.180Z,102135.00
2018-09-29T10:52:47.610Z,102128.13
2018-09-29T10:55:14.953Z,102129.59
2018-09-29T10:57:42.238Z,102122.32
2018-09-29T11:00:09.579Z,102122.95
2018-09-29T11:02:37.587Z,102124.60
2018-09-29T11:05:05.045Z,102114.67
2018-09-29T11:07:32.579Z,102107.13
2018-09-29T11:09:59.972Z,102116.70
2018-09-29T11:12:27.255Z,102105.99
2018-09-29T11:14:54.547Z,102100.65
2018-09-29T11:17:21.908Z,102095.74
2018-09-29T11:19:49.591Z,102101.29
2018-09-29T11:22:18.507Z,102090.52
2018-09-29T11:24:45.899Z,102097.78
2018-09-29T11:27:13.468Z,102086.05
2018-09-29T11:29:40.788Z,102087.84
2018-09-29T11:32:08.039Z,102081.36
2018-09-29T11:34:35.327Z,102076.68
2018-09-29T11:37:02.600Z,102068.95
2018-09-29T11:39:29.880Z,102075.48
2018-09-29T11:41:57.300Z,102068.53
2018-09-29T11:44:24.561Z,102058.67
2018-09-29T11:46:51.870Z,102056.41
2018-09-29T11:49:19.166Z,102047.59
2018-09-29T11:51:46.523Z,102050.30
2018-09-29T11:54:13.909Z,102035.86
2018-09-29T11:56:48.786Z,102032.98
2018-09-29T11:59:16.347Z,102034.03
2018-09-29T12:01:43.725Z,102027.91
2018-09-29T12:04:10.988Z,102023.98
2018-09-29T12:06:38.342Z,102027.02
2018-09-29T12:09:08.576Z,102016.37
2018-09-29T12:11:36.080Z,102001.25
2018-09-29T12:14:03.343Z,102003.74
2018-09-29T12:16:30.665Z,101999.17
2018-09-29T12:18:57.930Z,101997.53
2018-09-29T12:21:25.239Z,101986.36
2018-09-29T12:23:52.681Z,101986.39
2018-09-29T12:26:20.114Z,101993.66
2018-09-29T12:28:47.400Z,101979.41
2018-09-29T12:31:14.707Z,101973.98
2018-09-29T12:33:42.079Z,101968.73
2018-09-29T12:36:09.350Z,101969.47
2018-09-29T12:38:36.681Z,101965.05
2018-09-29T12:41:04.100Z,101967.19
2018-09-29T12:43:31.464Z,101963.00
2018-09-29T12:45:58.723Z,101961.17
2018-09-29T12:48:26.055Z,101958.20
2018-09-29T12:50:53.295Z,101948.59
2018-09-29T12:53:20.692Z,101946.12
2018-09-29T12:55:47.991Z,101949.63
2018-09-29T12:58:15.372Z,101948.23
2018-09-29T13:00:42.665Z,101936.08
2018-09-29T13:03:10.033Z,101943.38
2018-09-29T13:05:37.329Z,101928.77
2018-09-29T13:08:04.609Z,101924.94
2018-09-29T13:10:31.880Z,101920.25
2018-09-29T13:12:59.213Z,101906.97
2018-09-29T13:15:26.599Z,101908.13
2018-09-29T13:17:53.873Z,101909.13
2018-09-29T13:20:21.214Z,101903.01
2018-09-29T13:22:48.502Z,101897.14
2018-09-29T13:25:16.689Z,101893.72
2018-09-29T13:27:43.967Z,101889.27
2018-09-29T13:30:11.266Z,101877.31
2018-09-29T13:32:38.528Z,101877.19
2018-09-29T13:35:05.936Z,101877.11
2018-09-29T13:37:33.182Z,101868.33
2018-09-29T13:40:00.531Z,101867.94
2018-09-29T13:42:27.826Z,101869.67
2018-09-29T13:44:55.433Z,101861.41
2018-09-29T13:47:22.815Z,101858.31
2018-09-29T13:49:50.112Z,101862.44
2018-09-29T13:52:17.525Z,101855.73
2018-09-29T13:54:44.970Z,101853.91
2018-09-29T13:57:12.330Z,101850.34
2018-09-29T13:59:39.620Z,101847.18
2018-09-29T14:02:07.034Z,101841.97
2018-09-29T14:04:34.289Z,101839.15
2018-09-29T14:07:01.573Z,101842.48
2018-09-29T14:09:28.862Z,101845.41
2018-09-29T14:11:56.165Z,101830.84
2018-09-29T14:14:23.471Z,101835.86
2018-09-29T14:16:50.747Z,101831.20
2018-09-29T14:19:17.984Z,101831.36
2018-09-29T14:21:45.325Z,101822.72
2018-09-29T14:24:12.603Z,101821.14
2018-09-29T14:26:39.902Z,101820.83
2018-09-29T14:29:07.226Z,101814.98
2018-09-29T14:31:34.543Z,101807.45
2018-09-29T14:34:01.858Z,101804.94
2018-09-29T14:36:29.249Z,101802.23
2018-09-29T14:38:56.521Z,101803.05
2018-09-29T14:41:23.850Z,101796.63
2018-09-29T14:43:51.254Z,101786.70
2018-09-29T14:46:18.582Z,101801.34
2018-09-29T14:48:45.837Z,101795.06
2018-09-29T14:51:13.154Z,101784.80
2018-09-29T14:53:40.486Z,101778.95
2018-09-29T14:56:07.742Z,101781.66
2018-09-29T14:58:35.103Z,101779.20
2018-09-29T15:01:02.455Z,101778.19
2018-09-29T15:03:29.713Z,101780.31
2018-09-29T15:05:56.984Z,101768.83
2018-09-29T15:08:24.287Z,101773.32
2018-09-29T15:10:51.726Z,101769.54
2018-09-29T15:13:19.041Z,101755.20
2018-09-29T15:15:46.351Z,101757.82
2018-09-29T15:18:13.671Z,101747.32
2018-09-29T15:20:41.008Z,101759.66
2018-09-29T15:23:08.333Z,101753.20
2018-09-29T15:25:35.650Z,101758.95
2018-09-29T15:28:03.019Z,101747.20
2018-09-29T15:30:30.342Z,101748.95
2018-09-29T15:32:57.627Z,101741.76
2018-09-29T15:35:24.931Z,101742.27
2018-09-29T15:37:52.311Z,101737.89
2018-09-29T15:40:19.575Z,101733.02
2018-09-29T15:42:47.020Z,101731.55
2018-09-29T15:45:14.290Z,101730.41
2018-09-29T15:47:41.575Z,101738.39
2018-09-29T15:50:08.876Z,101728.95
2018-09-29T15:52:36.152Z,101732.36
2018-09-29T15:55:03.577Z,101722.13
2018-09-29T15:57:30.951Z,101721.72
2018-09-29T15:59:58.301Z,101723.02
2018-09-29T16:02:25.989Z,101727.38
2018-09-29T16:04:53.260Z,101724.05
2018-09-29T16:07:20.617Z,101731.06
2018-09-29T16:09:47.985Z,101732.55
2018-09-29T16:12:15.239Z,101732.38
2018-09-29T16:14:42.512Z,101732.38
2018-09-29T16:17:09.791Z,101730.47
2018-09-29T16:19:37.096Z,101731.84
2018-09-29T16:22:04.524Z,101720.30
2018-09-29T16:24:31.876Z,101724.39
2018-09-29T16:26:59.135Z,101724.95
2018-09-29T16:29:26.437Z,101720.38
2018-09-29T16:31:53.863Z,101721.70
2018-09-29T16:34:21.126Z,101713.66
2018-09-29T16:36:48.366Z,101713.25
2018-09-29T16:39:15.686Z,101715.73
2018-09-29T16:41:43.178Z,101712.24
2018-09-29T16:44:10.700Z,101707.33
2018-09-29T16:46:38.024Z,101708.49
2018-09-29T16:49:05.360Z,101705.66
2018-09-29T16:51:32.842Z,101711.28
2018-09-29T16:54:00.393Z,101712.77
2018-09-29T16:56:28.441Z,101703.85
2018-09-29T16:58:55.813Z,101699.68
2018-09-29T17:01:23.161Z,101705.83
2018-09-29T17:03:50.632Z,101708.05
2018-09-29T17:06:17.896Z,101709.48
2018-09-29T17:08:45.210Z,101705.44
2018-09-29T17:11:12.714Z,101705.78
2018-09-29T17:13:40.019Z,101711.17
2018-09-29T17:16:07.542Z,101709.22
2018-09-29T17:18:35.274Z,101704.08
2018-09-29T17:21:02.970Z,101709.42
2018-09-29T17:23:30.738Z,101702.41
2018-09-29T17:25:58.122Z,101696.52
2018-09-29T17:28:25.624Z,101710.18
2018-09-29T17:30:52.928Z,101703.27
2018-09-29T17:33:20.191Z,101706.90
2018-09-29T17:35:47.496Z,101708.92
2018-09-29T17:38:15.822Z,101704.97
2018-09-29T17:40:43.189Z,101700.73
2018-09-29T17:43:10.479Z,101705.58
2018-09-29T17:45:38.688Z,101709.05
2018-09-29T17:48:05.947Z,101709.98
2018-09-29T17:50:33.380Z,101709.05
2018-09-29T17:53:00.751Z,101706.55
2018-09-29T17:55:28.267Z,101703.36
2018-09-29T17:57:55.667Z,101696.99
2018-09-29T18:00:23.768Z,101701.39
2018-09-29T18:03:06.883Z,101702.16
2018-09-29T18:05:34.598Z,101705.09
2018-09-29T18:08:01.977Z,101699.91
2018-09-29T18:10:29.403Z,101704.83
2018-09-29T18:12:56.690Z,101693.72
2018-09-29T18:15:24.061Z,101698.92
2018-09-29T18:17:51.391Z,101701.79
2018-09-29T18:20:18.718Z,101697.92
2018-09-29T18:22:46.001Z,101691.33
2018-09-29T18:25:13.421Z,101690.07
2018-09-29T18:27:40.809Z,101688.63
2018-09-29T18:30:09.473Z,101694.17
2018-09-29T18:32:36.895Z,101691.23
2018-09-29T18:35:04.715Z,101690.01
2018-09-29T18:37:32.925Z,101684.96
2018-09-29T18:40:00.201Z,101685.80
2018-09-29T18:42:27.632Z,101682.98
2018-09-29T18:44:55.030Z,101682.14
2018-09-29T18:47:22.942Z,101684.23
2018-09-29T18:49:50.307Z,101672.67
2018-09-29T18:52:17.640Z,101671.33
2018-09-29T18:54:45.067Z,101671.66
2018-09-29T18:57:12.641Z,101671.91
2018-09-29T18:59:39.930Z,101673.16
2018-09-29T19:02:07.220Z,101672.77
2018-09-29T19:04:34.522Z,101659.99
2018-09-29T19:07:01.832Z,101673.28
2018-09-29T19:09:29.943Z,101676.87
2018-09-29T19:11:58.005Z,101674.26
2018-09-29T19:14:25.250Z,101674.11
2018-09-29T19:16:52.545Z,101673.87
2018-09-29T19:19:19.853Z,101671.61
2018-09-29T19:21:47.318Z,101663.56
2018-09-29T19:24:14.738Z,101665.67
2018-09-29T19:26:42.083Z,101661.22
2018-09-29T19:29:09.436Z,101660.92
2018-09-29T19:31:36.710Z,101662.98
2018-09-29T19:34:04.083Z,101659.70
2018-09-29T19:36:31.393Z,101664.10
2018-09-29T19:38:58.674Z,101668.77
2018-09-29T19:41:26.627Z,101658.50
2018-09-29T19:43:55.042Z,101662.22
2018-09-29T19:46:22.337Z,101662.81
2018-09-29T19:48:49.858Z,101654.37
2018-09-29T19:51:17.234Z,101650.52
2018-09-29T19:53:44.590Z,101645.95
2018-09-29T19:56:12.190Z,101651.12
2018-09-29T19:58:39.578Z,101643.63
2018-09-29T20:01:07.281Z,101652.15
2018-09-29T20:03:35.207Z,101656.04
2018-09-29T20:06:02.517Z,101652.42
2018-09-29T20:08:29.807Z,101647.20
2018-09-29T20:10:57.104Z,101643.02
2018-09-29T20:13:24.526Z,101640.78
2018-09-29T20:15:52.430Z,101633.67
2018-09-29T20:18:19.723Z,101641.71
2018-09-29T20:20:47.087Z,101637.44
2018-09-29T20:23:14.449Z,101643.91
2018-09-29T20:25:41.749Z,101638.71
2018-09-29T20:28:09.072Z,101629.17
2018-09-29T20:30:36.410Z,101633.05
2018-09-29T20:33:03.795Z,101627.98
2018-09-29T20:35:31.202Z,101624.69
2018-09-29T20:37:58.648Z,101623.02
2018-09-29T20:40:25.976Z,101614.11
2018-09-29T20:42:53.282Z,101607.84
2018-09-29T20:45:20.550Z,101607.09
2018-09-29T20:47:47.919Z,101605.05
2018-09-29T20:50:15.159Z,101598.73
2018-09-29T20:52:42.537Z,101602.40
2018-09-29T20:55:09.928Z,101596.98
2018-09-29T20:57:37.707Z,101601.39
2018-09-29T21:00:15.051Z,101589.80
2018-09-29T21:02:42.552Z,101588.52
2018-09-29T21:05:09.819Z,101587.03
2018-09-29T21:07:37.202Z,101585.45
2018-09-29T21:10:04.717Z,101590.13
2018-09-29T21:12:32.151Z,101583.39
2018-09-29T21:14:59.427Z,101579.47
2018-09-29T21:17:27.020Z,101575.36
2018-09-29T21:19:54.537Z,101582.37
2018-09-29T21:22:22.029Z,101571.88
2018-09-29T21:24:49.501Z,101568.91
2018-09-29T21:27:16.827Z,101564.02
2018-09-29T21:29:44.227Z,101561.28
2018-09-29T21:32:11.623Z,101558.41
2018-09-29T21:34:38.948Z,101555.77
2018-09-29T21:37:06.423Z,101557.81
2018-09-29T21:39:34.295Z,101548.97
2018-09-29T21:42:01.568Z,101550.17
2018-09-29T21:44:28.897Z,101553.67
2018-09-29T21:46:56.188Z,101548.73
2018-09-29T21:49:23.580Z,101541.86
2018-09-29T21:51:51.621Z,101536.49
2018-09-29T21:54:18.903Z,101534.86
2018-09-29T21:56:46.317Z,101529.61
2018-09-29T21:59:13.673Z,101530.77
2018-09-29T22:01:40.994Z,101521.88
2018-09-29T22:04:08.278Z,101522.08
2018-09-29T22:06:35.667Z,101517.02
2018-09-29T22:09:03.486Z,101507.47
2018-09-29T22:11:30.774Z,101514.42
2018-09-29T22:13:58.171Z,101505.63
2018-09-29T22:16:25.582Z,101502.80
2018-09-29T22:18:52.995Z,101499.83
2018-09-29T22:21:20.312Z,101501.94
2018-09-29T22:23:47.610Z,101498.37
2018-09-29T22:26:15.645Z,101496.02
2018-09-29T22:28:43.090Z,101498.39
2018-09-29T22:31:10.467Z,101491.83
2018-09-29T22:33:37.766Z,101491.06
2018-09-29T22:36:05.998Z,101488.50
2018-09-29T22:38:33.300Z,101488.56
2018-09-29T22:41:00.619Z,101487.17
2018-09-29T22:43:28.122Z,101473.25
2018-09-29T22:45:55.843Z,101472.44
2018-09-29T22:48:23.067Z,101474.36
2018-09-29T22:50:50.330Z,101470.98
2018-09-29T22:53:17.698Z,101471.35
2018-09-29T22:55:44.970Z,101465.86
2018-09-29T22:58:12.283Z,101459.80
2018-09-29T23:00:39.582Z,101467.47
2018-09-29T23:03:07.011Z,101464.48
2018-09-29T23:05:34.381Z,101464.06
2018-09-29T23:08:01.665Z,101466.52
2018-09-29T23:10:28.923Z,101463.24
2018-09-29T23:12:56.400Z,101462.44
2018-09-29T23:15:24.166Z,101460.31
2018-09-29T23:17:51.473Z,101464.23
2018-09-29T23:20:18.808Z,101458.41
2018-09-29T23:22:46.176Z,101448.08
2018-09-29T23:25:13.521Z,101455.05
2018-09-29T23:27:40.912Z,101442.27
2018-09-29T23:30:08.322Z,101445.97
2018-09-29T23:32:35.791Z,101446.16
2018-09-29T23:35:03.112Z,101443.44
2018-09-29T23:37:30.498Z,101439.02
2018-09-29T23:39:57.776Z,101438.06
2018-09-29T23:42:25.614Z,101449.48
2018-09-29T23:44:53.012Z,101446.81
2018-09-29T23:47:20.396Z,101446.01
2018-09-29T23:49:47.717Z,101443.44
2018-09-29T23:52:15.007Z,101447.41
2018-09-29T23:54:42.380Z,101438.17
2018-09-29T23:57:09.833Z,101438.21
2018-09-29T23:59:37.141Z,101438.72
